Bei Facebook empfehlenBei Twitter postenGoogle plusPinterest

Das Wetter im Erzgebirge am 10.02.2017

Wetter und Klima am 10.02.2017 Holzhau im Erzgebirge (630m ü.NN)
Letzte gemessene Temperatur und Uhrzeit der Messung23:45:00 Uhr-1.90 °C
Temperatur (Maximum / Höchstwert) und Uhrzeit der Messung15:15:00 Uhr-1.30 °C
Temperatur (Minimum / Tiefstwert) und Uhrzeit der Messung02:00:00-4.40 °C
Errechneter Absolutwert der Temperaturschwankungen zwischen Tmin und Tmax des Tages3.10 K
Errechnete Tagesmitteltemperatur-2.53750 °C
Gesamt - Niederschlag des Tages (in flüssiger Form)0.00 Liter / m²
Luftdruck (Maximum / Höchstwert) und Zeitpunkt der Messung00:00:00 Uhr1019.90 hPa
Luftdruck (Minimum / Tiefstwert) und Zeitpunkt der Messung16:15:00 Uhr1017.50 hPa
Errechneter Absolutwert der Luftdruckschwankungen des Tages2.40 hPa
Höchste gemessene Windgeschwindigkeit und Uhrzeit der Messung22:00:00 Uhr19.08 km/h
Errechnete Windhäufigkeit in Relation zu den Messwerten des Tages60.41667 %
Niedrigste Windkühle (Windchill) und Zeitpunkt der Messung03:15:00 Uhr-9.70 °C
Taupunkt (Maximum / Höchstwert) und Uhrzeit der Messung15:15:00 Uhr-3.40 °C
Taupunkt (Minimum / Tiefstwert) und Uhrzeit der Messung01:30:00-6.80 °C
Anzahl der automatisch eingelesenen Messwerte 96

Detaillierte Wetter- und Klima- Messwerte für den 10.02.2017 in Holzhau im Erzgebirge (630m ü.NN)
ZeitTemperaturLuftdruckRel. LuftfeuchteWindWindrichtungWindchillTaupunktNiederschlag l/m²
23:45:00-1.90 °C1017.90 hPa88.00 %9.36 km/hSSO-5.40 °C-3.80 °C 
23:30:00-1.90 °C1017.80 hPa88.00 %-3.80 °C 
23:15:00-1.80 °C1017.60 hPa88.00 %6.12 km/hSSO-4.10 °C-3.70 °C 
23:00:00-1.80 °C1017.80 hPa87.00 %12.60 km/hSSO-6.10 °C-3.90 °C 
22:45:00-1.80 °C1018.00 hPa87.00 %4.68 km/hSSO-1.80 °C-3.90 °C 
22:30:00-1.80 °C1018.00 hPa87.00 %3.96 km/hSSO-1.80 °C-3.90 °C 
22:15:00-1.80 °C1017.90 hPa87.00 %5.40 km/hSSO-3.80 °C-3.90 °C 
22:00:00-1.80 °C1017.80 hPa87.00 %19.08 km/hSSO-7.40 °C-3.90 °C 
21:45:00-1.80 °C1017.80 hPa87.00 %-3.90 °C 
21:30:00-1.70 °C1017.70 hPa86.00 %11.16 km/hSSO-5.70 °C-4.00 °C 
21:15:00-1.70 °C1017.70 hPa86.00 %-4.00 °C 
21:00:00-1.70 °C1017.60 hPa86.00 %7.92 km/hSSO-4.70 °C-4.00 °C 
20:45:00-1.70 °C1017.70 hPa86.00 %-4.00 °C 
20:30:00-1.70 °C1017.70 hPa86.00 %-4.00 °C 
20:15:00-1.70 °C1017.80 hPa86.00 %-4.00 °C 
20:00:00-1.70 °C1018.00 hPa86.00 %6.12 km/hSSO-4.00 °C-4.00 °C 
19:45:00-1.70 °C1017.90 hPa86.00 %8.64 km/hSSO-4.90 °C-4.00 °C 
19:30:00-1.70 °C1018.00 hPa86.00 %-4.00 °C 
19:15:00-1.70 °C1017.90 hPa87.00 %19.08 km/hSSO-7.20 °C-3.80 °C 
19:00:00-1.60 °C1017.80 hPa87.00 %0.36 km/hSSO-1.60 °C-3.70 °C 
18:45:00-1.60 °C1017.80 hPa87.00 %4.68 km/hSSO-1.60 °C-3.70 °C 
18:30:00-1.60 °C1017.90 hPa87.00 %10.80 km/hSSO-5.40 °C-3.70 °C 
18:15:00-1.60 °C1017.90 hPa87.00 %-3.70 °C 
18:00:00-1.60 °C1017.80 hPa87.00 %-3.70 °C 
17:45:00-1.60 °C1017.80 hPa87.00 %10.44 km/hSSO-5.30 °C-3.70 °C 
17:30:00-1.60 °C1017.80 hPa87.00 %-3.70 °C 
17:15:00-1.50 °C1017.60 hPa87.00 %-3.60 °C 
17:00:00-1.60 °C1017.70 hPa87.00 %16.92 km/hSSO-6.70 °C-3.70 °C 
16:45:00-1.60 °C1017.60 hPa87.00 %-3.70 °C 
16:30:00-1.50 °C1017.60 hPa87.00 %1.44 km/hSSO-1.50 °C-3.60 °C 
16:15:00-1.50 °C1017.50 hPa87.00 %5.04 km/hSSO-3.30 °C-3.60 °C 
16:00:00-1.40 °C1017.80 hPa87.00 %-3.50 °C 
15:45:00-1.40 °C1017.80 hPa87.00 %-3.50 °C 
15:30:00-1.40 °C1017.80 hPa87.00 %4.32 km/hSSO-1.40 °C-3.50 °C 
15:15:00-1.30 °C1017.90 hPa87.00 %3.24 km/hSSO-1.30 °C-3.40 °C 
15:00:00-1.30 °C1017.90 hPa87.00 %-3.40 °C 
14:45:00-1.30 °C1017.70 hPa87.00 %6.48 km/hSSO-3.70 °C-3.40 °C 
14:30:00-1.40 °C1017.80 hPa87.00 %1.80 km/hSSO-1.40 °C-3.50 °C 
14:15:00-1.40 °C1017.80 hPa87.00 %16.20 km/hSSO-6.40 °C-3.50 °C 
14:00:00-1.40 °C1017.90 hPa87.00 %-3.50 °C 
13:45:00-1.50 °C1017.90 hPa87.00 %5.04 km/hSSO-3.30 °C-3.60 °C 
13:30:00-1.40 °C1017.90 hPa87.00 %3.60 km/hSSO-1.40 °C-3.50 °C 
13:15:00-1.50 °C1018.10 hPa87.00 %-3.60 °C 
13:00:00-1.60 °C1018.00 hPa87.00 %9.00 km/hSSO-4.90 °C-3.70 °C 
12:45:00-1.60 °C1017.90 hPa87.00 %2.88 km/hSSO-1.60 °C-3.70 °C 
12:30:00-1.60 °C1018.00 hPa87.00 %2.88 km/hSSO-1.60 °C-3.70 °C 
12:15:00-1.60 °C1018.00 hPa87.00 %5.04 km/hSSO-3.40 °C-3.70 °C 
12:00:00-1.60 °C1018.10 hPa87.00 %-3.70 °C 
11:45:00-1.70 °C1018.10 hPa87.00 %-3.80 °C 
11:30:00-1.80 °C1018.30 hPa87.00 %-3.90 °C 
11:15:00-1.90 °C1018.30 hPa87.00 %2.52 km/hSSO-1.90 °C-4.00 °C 
11:00:00-1.80 °C1018.50 hPa87.00 %1.44 km/hSSO-1.80 °C-3.90 °C 
10:45:00-1.80 °C1018.60 hPa87.00 %-3.90 °C 
10:30:00-1.60 °C1018.30 hPa87.00 %6.12 km/hSSO-3.90 °C-3.70 °C 
10:15:00-1.50 °C1018.30 hPa87.00 %-3.60 °C 
10:00:00-1.60 °C1018.30 hPa87.00 %-3.70 °C 
09:45:00-1.90 °C1018.30 hPa88.00 %2.52 km/hSSO-1.90 °C-3.80 °C 
09:30:00-2.10 °C1018.30 hPa89.00 %-3.90 °C 
09:15:00-2.40 °C1018.30 hPa89.00 %3.60 km/hSSO-2.40 °C-4.10 °C 
09:00:00-2.70 °C1018.20 hPa90.00 %3.96 km/hSSO-2.70 °C-4.30 °C 
08:45:00-2.90 °C1018.20 hPa90.00 %6.84 km/hSSO-5.70 °C-4.50 °C 
08:30:00-3.10 °C1018.30 hPa90.00 %-4.70 °C 
08:15:00-3.30 °C1018.40 hPa90.00 %4.68 km/hSSO-3.30 °C-4.90 °C 
08:00:00-3.50 °C1018.30 hPa90.00 %7.20 km/hSSO-6.60 °C-5.10 °C 
07:45:00-3.60 °C1018.40 hPa90.00 %1.44 km/hSSO-3.60 °C-5.20 °C 
07:30:00-3.70 °C1018.30 hPa89.00 %-5.40 °C 
07:15:00-3.80 °C1018.30 hPa89.00 %-5.50 °C 
07:00:00-3.90 °C1018.30 hPa89.00 %10.80 km/hSSO-8.20 °C-5.60 °C 
06:45:00-3.90 °C1018.50 hPa89.00 %9.36 km/hSSO-7.80 °C-5.60 °C 
06:30:00-4.10 °C1018.50 hPa88.00 %-6.00 °C 
06:15:00-4.10 °C1018.50 hPa88.00 %1.08 km/hSSO-4.10 °C-6.00 °C 
06:00:00-4.10 °C1018.50 hPa88.00 %11.88 km/hSSO-8.70 °C-6.00 °C 
05:45:00-4.10 °C1018.40 hPa88.00 %1.44 km/hSSO-4.10 °C-6.00 °C 
05:30:00-4.10 °C1018.40 hPa87.00 %2.52 km/hSSO-4.10 °C-6.20 °C 
05:15:00-4.10 °C1018.60 hPa87.00 %-6.20 °C 
05:00:00-4.10 °C1018.70 hPa87.00 %6.84 km/hSSO-7.10 °C-6.20 °C 
04:45:00-4.10 °C1018.70 hPa87.00 %-6.20 °C 
04:30:00-4.10 °C1018.70 hPa87.00 %2.88 km/hSSO-4.10 °C-6.20 °C 
04:15:00-4.10 °C1018.80 hPa87.00 %11.52 km/hSSO-8.60 °C-6.20 °C 
04:00:00-4.10 °C1018.70 hPa87.00 %2.52 km/hSSO-4.10 °C-6.20 °C 
03:45:00-4.10 °C1018.70 hPa87.00 %-6.20 °C 
03:30:00-4.10 °C1018.70 hPa87.00 %3.96 km/hSSO-4.10 °C-6.20 °C 
03:15:00-4.10 °C1018.90 hPa87.00 %16.20 km/hSSO-9.70 °C-6.20 °C 
03:00:00-4.10 °C1019.00 hPa87.00 %-6.20 °C 
02:45:00-4.10 °C1019.10 hPa87.00 %4.32 km/hSSO-4.10 °C-6.20 °C 
02:30:00-4.10 °C1019.20 hPa87.00 %-6.20 °C 
02:15:00-4.20 °C1019.20 hPa87.00 %-6.30 °C 
02:00:00-4.40 °C1019.30 hPa86.00 %3.96 km/hSSO-4.40 °C-6.60 °C 
01:45:00-4.40 °C1019.40 hPa86.00 %3.96 km/hSSO-4.40 °C-6.60 °C 
01:30:00-4.40 °C1019.50 hPa85.00 %-6.80 °C 
01:15:00-4.40 °C1019.50 hPa85.00 %-6.80 °C 
01:00:00-4.20 °C1019.60 hPa85.00 %2.52 km/hSSO-4.20 °C-6.60 °C 
00:45:00-4.10 °C1019.80 hPa85.00 %-6.50 °C 
00:30:00-4.10 °C1019.80 hPa85.00 %4.68 km/hSSO-4.10 °C-6.50 °C 
00:15:00-4.10 °C1019.80 hPa84.00 %1.44 km/hSSO-4.10 °C-6.70 °C 
00:00:00-4.10 °C1019.90 hPa84.00 %-6.70 °C 

Permanenter Link zu dieser Seite: Wetter im Erzgebirge am 10.02.2017
Performance-Info: Die Erstellung der Seite / Statistik(en) / Tabelle(n) erforderte 5 Datenbankserver-Abfrage(n) und dauerte 122 Millisekunden. (Dieser Messwert ist von der Gesamt-Auslastung des Servers abhängig.)
Erzgebirge - Wetter | Erzgebirge - Wetter (Mobilgeräte) | Komplette Klimadatenbank